sensor_id;sensor_type;location;lat;lon;timestamp;pressure;altitude;pressure_sealevel;temperature;humidity
54262;BME280;40174;52.364;6.452;2022-10-16T00:00:29;100711.47;;;11.51;100.00
54262;BME280;40174;52.364;6.452;2022-10-16T00:02:57;100705.47;;;11.49;100.00
54262;BME280;40174;52.364;6.452;2022-10-16T00:05:24;100702.00;;;11.48;100.00
54262;BME280;40174;52.364;6.452;2022-10-16T00:07:50;100695.13;;;11.45;100.00
54262;BME280;40174;52.364;6.452;2022-10-16T00:10:17;100689.00;;;11.45;100.00
54262;BME280;40174;52.364;6.452;2022-10-16T00:12:43;100696.13;;;11.44;100.00
54262;BME280;40174;52.364;6.452;2022-10-16T00:15:11;100687.34;;;11.44;100.00
54262;BME280;40174;52.364;6.452;2022-10-16T00:17:37;100695.41;;;11.42;100.00
54262;BME280;40174;52.364;6.452;2022-10-16T00:20:06;100690.22;;;11.41;100.00
54262;BME280;40174;52.364;6.452;2022-10-16T00:22:33;100692.16;;;11.39;100.00
54262;BME280;40174;52.364;6.452;2022-10-16T00:25:00;100694.81;;;11.39;100.00
54262;BME280;40174;52.364;6.452;2022-10-16T00:27:26;100696.78;;;11.37;100.00
54262;BME280;40174;52.364;6.452;2022-10-16T00:29:53;100702.19;;;11.35;100.00
54262;BME280;40174;52.364;6.452;2022-10-16T00:32:20;100706.66;;;11.35;100.00
54262;BME280;40174;52.364;6.452;2022-10-16T00:34:46;100716.25;;;11.36;100.00
54262;BME280;40174;52.364;6.452;2022-10-16T00:37:14;100714.22;;;11.39;100.00
54262;BME280;40174;52.364;6.452;2022-10-16T00:39:41;100714.22;;;11.39;100.00
54262;BME280;40174;52.364;6.452;2022-10-16T00:42:09;100707.09;;;11.40;100.00
54262;BME280;40174;52.364;6.452;2022-10-16T00:44:44;100705.03;;;11.43;100.00
54262;BME280;40174;52.364;6.452;2022-10-16T00:47:13;100705.72;;;11.45;100.00
54262;BME280;40174;52.364;6.452;2022-10-16T00:49:42;100705.16;;;11.42;100.00
54262;BME280;40174;52.364;6.452;2022-10-16T00:52:09;100704.88;;;11.45;100.00
54262;BME280;40174;52.364;6.452;2022-10-16T00:54:38;100708.50;;;11.44;100.00
54262;BME280;40174;52.364;6.452;2022-10-16T00:57:06;100712.13;;;11.43;100.00
54262;BME280;40174;52.364;6.452;2022-10-16T00:59:34;100704.19;;;11.43;100.00
54262;BME280;40174;52.364;6.452;2022-10-16T01:02:03;100714.75;;;11.43;100.00
54262;BME280;40174;52.364;6.452;2022-10-16T01:04:32;100704.44;;;11.40;100.00
54262;BME280;40174;52.364;6.452;2022-10-16T01:07:08;100705.28;;;11.40;100.00
54262;BME280;40174;52.364;6.452;2022-10-16T01:09:47;100700.97;;;11.39;100.00
54262;BME280;40174;52.364;6.452;2022-10-16T01:12:23;100703.88;;;11.36;100.00
54262;BME280;40174;52.364;6.452;2022-10-16T01:14:54;100703.03;;;11.36;100.00
54262;BME280;40174;52.364;6.452;2022-10-16T01:17:28;100697.63;;;11.37;100.00
54262;BME280;40174;52.364;6.452;2022-10-16T01:20:11;100702.91;;;11.37;100.00
54262;BME280;40174;52.364;6.452;2022-10-16T01:22:49;100705.69;;;11.36;100.00
54262;BME280;40174;52.364;6.452;2022-10-16T01:25:25;100712.66;;;11.37;100.00
54262;BME280;40174;52.364;6.452;2022-10-16T01:28:00;100708.19;;;11.37;100.00
54262;BME280;40174;52.364;6.452;2022-10-16T01:30:30;100709.56;;;11.32;100.00
54262;BME280;40174;52.364;6.452;2022-10-16T01:33:02;100705.94;;;11.33;100.00
54262;BME280;40174;52.364;6.452;2022-10-16T01:43:08;100707.44;;;11.26;100.00
54262;BME280;40174;52.364;6.452;2022-10-16T01:45:36;100709.22;;;11.25;100.00
54262;BME280;40174;52.364;6.452;2022-10-16T01:48:05;100716.22;;;11.26;100.00
54262;BME280;40174;52.364;6.452;2022-10-16T01:50:37;100698.53;;;11.27;100.00
54262;BME280;40174;52.364;6.452;2022-10-16T01:53:05;100700.19;;;11.28;100.00
54262;BME280;40174;52.364;6.452;2022-10-16T01:55:37;100698.25;;;11.30;100.00
54262;BME280;40174;52.364;6.452;2022-10-16T01:58:09;100694.53;;;11.32;100.00
54262;BME280;40174;52.364;6.452;2022-10-16T02:00:37;100693.69;;;11.32;100.00
54262;BME280;40174;52.364;6.452;2022-10-16T02:03:05;100686.59;;;11.32;100.00
54262;BME280;40174;52.364;6.452;2022-10-16T02:05:37;100698.56;;;11.36;100.00
54262;BME280;40174;52.364;6.452;2022-10-16T02:08:06;100694.25;;;11.35;100.00
54262;BME280;40174;52.364;6.452;2022-10-16T02:10:34;100693.56;;;11.33;100.00
54262;BME280;40174;52.364;6.452;2022-10-16T02:13:06;100700.50;;;11.34;100.00
54262;BME280;40174;52.364;6.452;2022-10-16T02:15:35;100701.50;;;11.33;100.00
54262;BME280;40174;52.364;6.452;2022-10-16T02:18:03;100703.03;;;11.36;100.00
54262;BME280;40174;52.364;6.452;2022-10-16T02:20:34;100708.31;;;11.36;100.00
54262;BME280;40174;52.364;6.452;2022-10-16T02:23:03;100712.38;;;11.40;100.00
54262;BME280;40174;52.364;6.452;2022-10-16T02:25:31;100702.50;;;11.42;100.00
54262;BME280;40174;52.364;6.452;2022-10-16T02:28:02;100699.88;;;11.42;100.00
54262;BME280;40174;52.364;6.452;2022-10-16T02:30:36;100699.88;;;11.42;100.00
54262;BME280;40174;52.364;6.452;2022-10-16T02:33:07;100703.22;;;11.44;100.00
54262;BME280;40174;52.364;6.452;2022-10-16T02:35:36;100713.81;;;11.44;100.00
54262;BME280;40174;52.364;6.452;2022-10-16T02:38:04;100720.63;;;11.47;100.00
54262;BME280;40174;52.364;6.452;2022-10-16T02:40:31;100722.31;;;11.48;100.00
54262;BME280;40174;52.364;6.452;2022-10-16T02:42:58;100723.28;;;11.47;100.00
54262;BME280;40174;52.364;6.452;2022-10-16T02:45:25;100728.00;;;11.43;100.00
54262;BME280;40174;52.364;6.452;2022-10-16T02:47:53;100734.00;;;11.45;100.00
54262;BME280;40174;52.364;6.452;2022-10-16T02:50:19;100711.88;;;11.46;100.00
54262;BME280;40174;52.364;6.452;2022-10-16T02:52:46;100711.16;;;11.44;100.00
54262;BME280;40174;52.364;6.452;2022-10-16T02:55:13;100709.22;;;11.46;100.00
54262;BME280;40174;52.364;6.452;2022-10-16T02:57:39;100709.06;;;11.48;100.00
54262;BME280;40174;52.364;6.452;2022-10-16T03:00:07;100709.34;;;11.44;100.00
54262;BME280;40174;52.364;6.452;2022-10-16T03:02:35;100704.88;;;11.45;100.00
54262;BME280;40174;52.364;6.452;2022-10-16T03:05:03;100712.00;;;11.44;100.00
54262;BME280;40174;52.364;6.452;2022-10-16T03:07:30;100704.75;;;11.47;100.00
54262;BME280;40174;52.364;6.452;2022-10-16T03:09:56;100717.72;;;11.50;100.00
54262;BME280;40174;52.364;6.452;2022-10-16T03:12:25;100719.41;;;11.51;100.00
54262;BME280;40174;52.364;6.452;2022-10-16T03:14:52;100729.84;;;11.52;100.00
54262;BME280;40174;52.364;6.452;2022-10-16T03:17:18;100739.59;;;11.52;100.00
54262;BME280;40174;52.364;6.452;2022-10-16T03:19:45;100732.38;;;11.54;100.00
54262;BME280;40174;52.364;6.452;2022-10-16T03:22:13;100738.66;;;11.53;100.00
54262;BME280;40174;52.364;6.452;2022-10-16T03:24:39;100730.84;;;11.51;100.00
54262;BME280;40174;52.364;6.452;2022-10-16T03:27:06;100732.38;;;11.54;100.00
54262;BME280;40174;52.364;6.452;2022-10-16T03:29:33;100729.84;;;11.52;100.00
54262;BME280;40174;52.364;6.452;2022-10-16T03:32:00;100735.16;;;11.52;100.00
54262;BME280;40174;52.364;6.452;2022-10-16T03:34:27;100737.66;;;11.54;100.00
54262;BME280;40174;52.364;6.452;2022-10-16T03:36:54;100728.06;;;11.53;100.00
54262;BME280;40174;52.364;6.452;2022-10-16T03:39:21;100725.25;;;11.54;100.00
54262;BME280;40174;52.364;6.452;2022-10-16T03:41:48;100732.25;;;11.55;100.00
54262;BME280;40174;52.364;6.452;2022-10-16T03:44:15;100731.28;;;11.56;100.00
54262;BME280;40174;52.364;6.452;2022-10-16T03:46:41;100731.28;;;11.56;100.00
54262;BME280;40174;52.364;6.452;2022-10-16T03:49:08;100741.03;;;11.56;100.00
54262;BME280;40174;52.364;6.452;2022-10-16T03:51:34;100732.38;;;11.54;100.00
54262;BME280;40174;52.364;6.452;2022-10-16T03:54:01;100735.03;;;11.54;100.00
54262;BME280;40174;52.364;6.452;2022-10-16T03:56:29;100737.28;;;11.58;100.00
54262;BME280;40174;52.364;6.452;2022-10-16T03:58:55;100730.88;;;11.61;100.00
54262;BME280;40174;52.364;6.452;2022-10-16T04:01:22;100732.81;;;11.59;100.00
54262;BME280;40174;52.364;6.452;2022-10-16T04:03:48;100739.09;;;11.58;100.00
54262;BME280;40174;52.364;6.452;2022-10-16T04:06:15;100743.66;;;11.56;100.00
54262;BME280;40174;52.364;6.452;2022-10-16T04:08:42;100749.78;;;11.56;100.00
54262;BME280;40174;52.364;6.452;2022-10-16T04:11:09;100756.63;;;11.59;100.00
54262;BME280;40174;52.364;6.452;2022-10-16T04:13:37;100752.59;;;11.55;100.00
54262;BME280;40174;52.364;6.452;2022-10-16T04:16:04;100761.38;;;11.55;100.00
54262;BME280;40174;52.364;6.452;2022-10-16T04:18:30;100758.56;;;11.57;100.00
54262;BME280;40174;52.364;6.452;2022-10-16T04:20:57;100750.91;;;11.54;100.00
54262;BME280;40174;52.364;6.452;2022-10-16T04:23:27;100750.78;;;11.55;100.00
54262;BME280;40174;52.364;6.452;2022-10-16T04:25:54;100751.72;;;11.54;100.00
54262;BME280;40174;52.364;6.452;2022-10-16T04:28:20;100761.75;;;11.51;100.00
54262;BME280;40174;52.364;6.452;2022-10-16T04:30:48;100767.88;;;11.51;100.00
54262;BME280;40174;52.364;6.452;2022-10-16T04:33:15;100765.25;;;11.51;100.00
54262;BME280;40174;52.364;6.452;2022-10-16T04:35:41;100763.69;;;11.49;100.00
54262;BME280;40174;52.364;6.452;2022-10-16T04:38:08;100771.75;;;11.47;100.00
54262;BME280;40174;52.364;6.452;2022-10-16T04:40:35;100788.63;;;11.46;100.00
54262;BME280;40174;52.364;6.452;2022-10-16T04:43:02;100794.03;;;11.44;100.00
54262;BME280;40174;52.364;6.452;2022-10-16T04:45:28;100801.25;;;11.42;100.00
54262;BME280;40174;52.364;6.452;2022-10-16T04:47:58;100800.44;;;11.42;100.00
54262;BME280;40174;52.364;6.452;2022-10-16T04:50:25;100799.59;;;11.41;100.00
54262;BME280;40174;52.364;6.452;2022-10-16T04:53:04;100805.84;;;11.40;100.00
54262;BME280;40174;52.364;6.452;2022-10-16T04:55:31;100803.19;;;11.40;100.00
54262;BME280;40174;52.364;6.452;2022-10-16T04:57:57;100814.88;;;11.38;100.00
54262;BME280;40174;52.364;6.452;2022-10-16T05:00:24;100816.69;;;11.37;100.00
54262;BME280;40174;52.364;6.452;2022-10-16T05:02:50;100822.94;;;11.36;100.00
54262;BME280;40174;52.364;6.452;2022-10-16T05:05:18;100822.09;;;11.36;100.00
54262;BME280;40174;52.364;6.452;2022-10-16T05:07:45;100820.19;;;11.38;100.00
54262;BME280;40174;52.364;6.452;2022-10-16T05:10:12;100815.00;;;11.36;100.00
54262;BME280;40174;52.364;6.452;2022-10-16T05:12:38;100820.28;;;11.36;100.00
54262;BME280;40174;52.364;6.452;2022-10-16T05:15:06;100818.50;;;11.37;100.00
54262;BME280;40174;52.364;6.452;2022-10-16T05:17:32;100815.16;;;11.35;100.00
54262;BME280;40174;52.364;6.452;2022-10-16T05:19:59;100816.94;;;11.34;100.00
54262;BME280;40174;52.364;6.452;2022-10-16T05:22:27;100815.97;;;11.35;100.00
54262;BME280;40174;52.364;6.452;2022-10-16T05:24:53;100825.84;;;11.33;100.00
54262;BME280;40174;52.364;6.452;2022-10-16T05:27:20;100825.72;;;11.35;100.00
54262;BME280;40174;52.364;6.452;2022-10-16T05:29:47;100839.91;;;11.34;100.00
54262;BME280;40174;52.364;6.452;2022-10-16T05:32:15;100837.53;;;11.31;100.00
54262;BME280;40174;52.364;6.452;2022-10-16T05:34:42;100850.75;;;11.31;100.00
54262;BME280;40174;52.364;6.452;2022-10-16T05:37:08;100846.31;;;11.31;100.00
54262;BME280;40174;52.364;6.452;2022-10-16T05:39:36;100839.59;;;11.27;100.00
54262;BME280;40174;52.364;6.452;2022-10-16T05:42:03;100849.94;;;11.30;100.00
54262;BME280;40174;52.364;6.452;2022-10-16T05:44:30;100845.84;;;11.26;100.00
54262;BME280;40174;52.364;6.452;2022-10-16T05:46:56;100847.78;;;11.24;100.00
54262;BME280;40174;52.364;6.452;2022-10-16T05:49:23;100861.13;;;11.22;100.00
54262;BME280;40174;52.364;6.452;2022-10-16T05:51:49;100865.84;;;11.19;100.00
54262;BME280;40174;52.364;6.452;2022-10-16T05:54:16;100871.84;;;11.21;100.00
54262;BME280;40174;52.364;6.452;2022-10-16T05:56:44;100868.34;;;11.20;100.00
54262;BME280;40174;52.364;6.452;2022-10-16T05:59:10;100868.50;;;11.19;100.00
54262;BME280;40174;52.364;6.452;2022-10-16T06:01:37;100865.72;;;11.20;100.00
54262;BME280;40174;52.364;6.452;2022-10-16T06:04:04;100869.34;;;11.19;100.00
54262;BME280;40174;52.364;6.452;2022-10-16T06:06:30;100878.22;;;11.18;100.00
54262;BME280;40174;52.364;6.452;2022-10-16T06:08:57;100885.31;;;11.18;100.00
54262;BME280;40174;52.364;6.452;2022-10-16T06:11:26;100889.78;;;11.17;100.00
54262;BME280;40174;52.364;6.452;2022-10-16T06:13:56;100893.00;;;11.21;100.00
54262;BME280;40174;52.364;6.452;2022-10-16T06:16:24;100888.81;;;11.18;100.00
54262;BME280;40174;52.364;6.452;2022-10-16T06:18:51;100897.72;;;11.17;100.00
54262;BME280;40174;52.364;6.452;2022-10-16T06:21:20;100906.75;;;11.15;100.00
54262;BME280;40174;52.364;6.452;2022-10-16T06:23:48;100897.97;;;11.14;100.00
54262;BME280;40174;52.364;6.452;2022-10-16T06:26:17;100907.84;;;11.12;100.00
54262;BME280;40174;52.364;6.452;2022-10-16T06:28:44;100909.78;;;11.10;100.00
54262;BME280;40174;52.364;6.452;2022-10-16T06:31:12;100911.56;;;11.10;100.00
54262;BME280;40174;52.364;6.452;2022-10-16T06:33:39;100923.94;;;11.09;100.00
54262;BME280;40174;52.364;6.452;2022-10-16T06:36:08;100927.56;;;11.08;100.00
54262;BME280;40174;52.364;6.452;2022-10-16T06:38:35;100929.50;;;11.06;100.00
54262;BME280;40174;52.364;6.452;2022-10-16T06:41:02;100935.50;;;11.08;100.00
54262;BME280;40174;52.364;6.452;2022-10-16T06:43:29;100938.25;;;11.07;100.00
54262;BME280;40174;52.364;6.452;2022-10-16T06:45:59;100952.47;;;11.06;100.00
54262;BME280;40174;52.364;6.452;2022-10-16T06:48:28;100945.47;;;11.05;100.00
54262;BME280;40174;52.364;6.452;2022-10-16T06:50:56;100948.84;;;11.07;100.00
54262;BME280;40174;52.364;6.452;2022-10-16T06:53:23;100962.78;;;11.09;100.00
54262;BME280;40174;52.364;6.452;2022-10-16T06:55:50;100967.81;;;11.12;100.00
54262;BME280;40174;52.364;6.452;2022-10-16T06:58:16;100964.34;;;11.11;100.00
54262;BME280;40174;52.364;6.452;2022-10-16T07:00:43;100974.44;;;11.17;100.00
54262;BME280;40174;52.364;6.452;2022-10-16T07:03:09;100987.66;;;11.17;100.00
54262;BME280;40174;52.364;6.452;2022-10-16T07:05:38;100992.69;;;11.20;100.00
54262;BME280;40174;52.364;6.452;2022-10-16T07:08:05;100989.94;;;11.22;100.00
54262;BME280;40174;52.364;6.452;2022-10-16T07:10:32;100990.66;;;11.24;100.00
54262;BME280;40174;52.364;6.452;2022-10-16T07:12:59;100994.13;;;11.24;100.00
54262;BME280;40174;52.364;6.452;2022-10-16T07:15:26;101012.28;;;11.29;100.00
54262;BME280;40174;52.364;6.452;2022-10-16T07:17:53;101019.28;;;11.30;100.00
54262;BME280;40174;52.364;6.452;2022-10-16T07:20:20;101015.91;;;11.28;100.00
54262;BME280;40174;52.364;6.452;2022-10-16T07:22:47;101016.63;;;11.30;100.00
54262;BME280;40174;52.364;6.452;2022-10-16T07:25:14;101027.06;;;11.32;100.00
54262;BME280;40174;52.364;6.452;2022-10-16T07:27:41;101025.03;;;11.35;100.00
54262;BME280;40174;52.364;6.452;2022-10-16T07:30:08;101032.34;;;11.43;100.00
54262;BME280;40174;52.364;6.452;2022-10-16T07:32:35;101039.91;;;11.48;100.00
54262;BME280;40174;52.364;6.452;2022-10-16T07:35:01;101046.78;;;11.50;100.00
54262;BME280;40174;52.364;6.452;2022-10-16T07:37:28;101043.63;;;11.56;100.00
54262;BME280;40174;52.364;6.452;2022-10-16T07:39:56;101048.53;;;11.61;100.00
54262;BME280;40174;52.364;6.452;2022-10-16T07:42:22;101056.44;;;11.72;100.00
54262;BME280;40174;52.364;6.452;2022-10-16T07:44:49;101053.31;;;11.78;100.00
54262;BME280;40174;52.364;6.452;2022-10-16T07:47:15;101041.38;;;11.84;100.00
54262;BME280;40174;52.364;6.452;2022-10-16T07:49:42;101049.06;;;11.87;100.00
54262;BME280;40174;52.364;6.452;2022-10-16T07:52:08;101063.91;;;11.90;100.00
54262;BME280;40174;52.364;6.452;2022-10-16T07:54:35;101061.97;;;11.92;100.00
54262;BME280;40174;52.364;6.452;2022-10-16T07:57:03;101067.88;;;11.95;100.00
54262;BME280;40174;52.364;6.452;2022-10-16T07:59:29;101064.22;;;11.96;100.00
54262;BME280;40174;52.364;6.452;2022-10-16T08:01:56;101067.47;;;12.00;100.00
54262;BME280;40174;52.364;6.452;2022-10-16T08:04:23;101074.91;;;12.06;100.00
54262;BME280;40174;52.364;6.452;2022-10-16T08:06:49;101073.69;;;12.10;100.00
54262;BME280;40174;52.364;6.452;2022-10-16T08:09:16;101083.19;;;12.13;100.00
54262;BME280;40174;52.364;6.452;2022-10-16T08:11:42;101089.34;;;12.13;100.00
54262;BME280;40174;52.364;6.452;2022-10-16T08:14:10;101087.16;;;12.18;100.00
54262;BME280;40174;52.364;6.452;2022-10-16T08:16:37;101086.06;;;12.21;100.00
54262;BME280;40174;52.364;6.452;2022-10-16T08:19:03;101098.19;;;12.23;100.00
54262;BME280;40174;52.364;6.452;2022-10-16T08:21:30;101094.22;;;12.29;100.00
54262;BME280;40174;52.364;6.452;2022-10-16T08:23:56;101091.19;;;12.34;100.00
54262;BME280;40174;52.364;6.452;2022-10-16T08:26:25;101082.00;;;12.38;100.00
54262;BME280;40174;52.364;6.452;2022-10-16T08:28:52;101076.31;;;12.42;100.00
54262;BME280;40174;52.364;6.452;2022-10-16T08:31:21;101075.06;;;12.46;100.00
54262;BME280;40174;52.364;6.452;2022-10-16T08:33:48;101078.31;;;12.50;100.00
54262;BME280;40174;52.364;6.452;2022-10-16T08:36:15;101096.47;;;12.55;100.00
54262;BME280;40174;52.364;6.452;2022-10-16T08:38:42;101099.72;;;12.58;100.00
54262;BME280;40174;52.364;6.452;2022-10-16T08:41:26;101108.13;;;12.63;100.00
54262;BME280;40174;52.364;6.452;2022-10-16T08:44:22;101119.06;;;12.70;100.00
54262;BME280;40174;52.364;6.452;2022-10-16T08:47:02;101117.94;;;12.73;100.00
54262;BME280;40174;52.364;6.452;2022-10-16T08:49:36;101130.97;;;12.76;100.00
54262;BME280;40174;52.364;6.452;2022-10-16T08:52:04;101138.38;;;12.82;100.00
54262;BME280;40174;52.364;6.452;2022-10-16T08:54:36;101139.38;;;12.81;100.00
54262;BME280;40174;52.364;6.452;2022-10-16T08:57:11;101137.03;;;12.87;100.00
54262;BME280;40174;52.364;6.452;2022-10-16T08:59:38;101142.56;;;13.05;100.00
54262;BME280;40174;52.364;6.452;2022-10-16T09:02:23;101146.50;;;13.11;100.00
54262;BME280;40174;52.364;6.452;2022-10-16T09:07:46;101146.22;;;13.35;100.00
54262;BME280;40174;52.364;6.452;2022-10-16T09:10:26;101163.06;;;13.45;100.00
54262;BME280;40174;52.364;6.452;2022-10-16T09:12:58;101164.34;;;13.61;100.00
54262;BME280;40174;52.364;6.452;2022-10-16T09:15:33;101166.91;;;13.72;100.00
54262;BME280;40174;52.364;6.452;2022-10-16T09:18:07;101169.84;;;13.79;100.00
54262;BME280;40174;52.364;6.452;2022-10-16T09:20:44;101164.16;;;13.93;100.00
54262;BME280;40174;52.364;6.452;2022-10-16T09:23:17;101186.97;;;14.05;100.00
54262;BME280;40174;52.364;6.452;2022-10-16T09:25:47;101184.19;;;14.17;100.00
54262;BME280;40174;52.364;6.452;2022-10-16T09:28:14;101192.63;;;14.22;100.00
54262;BME280;40174;52.364;6.452;2022-10-16T09:30:41;101198.78;;;14.32;100.00
54262;BME280;40174;52.364;6.452;2022-10-16T09:33:12;101195.00;;;14.44;100.00
54262;BME280;40174;52.364;6.452;2022-10-16T09:35:40;101200.75;;;14.49;100.00
54262;BME280;40174;52.364;6.452;2022-10-16T09:38:08;101195.00;;;14.54;100.00
54262;BME280;40174;52.364;6.452;2022-10-16T09:40:47;101202.16;;;14.73;100.00
54262;BME280;40174;52.364;6.452;2022-10-16T09:43:20;101216.00;;;14.86;100.00
54262;BME280;40174;52.364;6.452;2022-10-16T09:45:56;101222.19;;;14.96;100.00
54262;BME280;40174;52.364;6.452;2022-10-16T09:48:26;101220.09;;;15.00;100.00
54262;BME280;40174;52.364;6.452;2022-10-16T09:50:58;101228.47;;;15.05;100.00
54262;BME280;40174;52.364;6.452;2022-10-16T09:53:35;101226.63;;;15.15;100.00
54262;BME280;40174;52.364;6.452;2022-10-16T09:56:03;101214.13;;;15.26;100.00
54262;BME280;40174;52.364;6.452;2022-10-16T09:58:32;101219.03;;;15.30;100.00
54262;BME280;40174;52.364;6.452;2022-10-16T10:00:59;101226.84;;;15.42;100.00
54262;BME280;40174;52.364;6.452;2022-10-16T10:03:38;101223.16;;;15.52;100.00
54262;BME280;40174;52.364;6.452;2022-10-16T10:06:16;101213.00;;;15.66;100.00
54262;BME280;40174;52.364;6.452;2022-10-16T10:08:55;101232.34;;;15.77;100.00
54262;BME280;40174;52.364;6.452;2022-10-16T10:11:42;101218.56;;;15.82;100.00
54262;BME280;40174;52.364;6.452;2022-10-16T10:14:17;101228.59;;;15.98;100.00
54262;BME280;40174;52.364;6.452;2022-10-16T10:16:45;101225.78;;;15.99;100.00
54262;BME280;40174;52.364;6.452;2022-10-16T10:19:15;101242.59;;;16.00;100.00
54262;BME280;40174;52.364;6.452;2022-10-16T10:21:42;101238.28;;;15.99;100.00
54262;BME280;40174;52.364;6.452;2022-10-16T10:24:10;101232.25;;;15.97;100.00
54262;BME280;40174;52.364;6.452;2022-10-16T10:26:38;101233.88;;;16.08;100.00
54262;BME280;40174;52.364;6.452;2022-10-16T10:29:13;101250.19;;;16.23;100.00
54262;BME280;40174;52.364;6.452;2022-10-16T10:31:47;101243.81;;;16.33;100.00
54262;BME280;40174;52.364;6.452;2022-10-16T10:34:33;101248.38;;;16.41;100.00
54262;BME280;40174;52.364;6.452;2022-10-16T10:37:06;101245.66;;;16.51;100.00
54262;BME280;40174;52.364;6.452;2022-10-16T10:39:40;101257.25;;;16.41;100.00
54262;BME280;40174;52.364;6.452;2022-10-16T10:42:19;101256.78;;;16.46;100.00
54262;BME280;40174;52.364;6.452;2022-10-16T10:44:57;101254.41;;;16.43;100.00
54262;BME280;40174;52.364;6.452;2022-10-16T10:47:35;101265.84;;;16.35;100.00
54262;BME280;40174;52.364;6.452;2022-10-16T10:50:13;101261.59;;;16.42;100.00
54262;BME280;40174;52.364;6.452;2022-10-16T10:52:53;101258.69;;;16.36;100.00
54262;BME280;40174;52.364;6.452;2022-10-16T10:55:31;101268.41;;;16.27;100.00
54262;BME280;40174;52.364;6.452;2022-10-16T11:00:57;101276.41;;;16.27;100.00
54262;BME280;40174;52.364;6.452;2022-10-16T11:03:39;101270.25;;;16.27;100.00
54262;BME280;40174;52.364;6.452;2022-10-16T11:06:12;101279.34;;;16.52;100.00
54262;BME280;40174;52.364;6.452;2022-10-16T11:08:45;101280.97;;;16.62;100.00
54262;BME280;40174;52.364;6.452;2022-10-16T11:11:16;101278.38;;;16.53;100.00
54262;BME280;40174;52.364;6.452;2022-10-16T11:13:54;101285.44;;;16.44;100.00
54262;BME280;40174;52.364;6.452;2022-10-16T11:16:26;101284.63;;;16.61;100.00
54262;BME280;40174;52.364;6.452;2022-10-16T11:18:57;101278.44;;;16.79;100.00
54262;BME280;40174;52.364;6.452;2022-10-16T11:21:40;101279.31;;;17.15;100.00
54262;BME280;40174;52.364;6.452;2022-10-16T11:24:19;101274.50;;;17.01;98.68
54262;BME280;40174;52.364;6.452;2022-10-16T11:26:47;101289.13;;;16.79;99.90
54262;BME280;40174;52.364;6.452;2022-10-16T11:29:19;101297.84;;;16.81;100.00
54262;BME280;40174;52.364;6.452;2022-10-16T11:31:50;101284.66;;;17.15;100.00
54262;BME280;40174;52.364;6.452;2022-10-16T11:34:22;101300.47;;;17.35;97.37
54262;BME280;40174;52.364;6.452;2022-10-16T11:36:56;101293.09;;;17.55;94.58
54262;BME280;40174;52.364;6.452;2022-10-16T11:39:25;101296.84;;;17.44;98.78
54262;BME280;40174;52.364;6.452;2022-10-16T11:41:55;101305.47;;;17.12;99.41
54262;BME280;40174;52.364;6.452;2022-10-16T11:44:43;101312.13;;;16.90;99.90
54262;BME280;40174;52.364;6.452;2022-10-16T11:47:23;101303.38;;;16.70;100.00
54262;BME280;40174;52.364;6.452;2022-10-16T11:49:55;101312.28;;;16.60;99.03
54262;BME280;40174;52.364;6.452;2022-10-16T11:52:29;101317.94;;;16.57;98.96
54262;BME280;40174;52.364;6.452;2022-10-16T11:54:59;101326.66;;;16.59;100.00
54262;BME280;40174;52.364;6.452;2022-10-16T11:57:32;101319.78;;;16.57;100.00
54262;BME280;40174;52.364;6.452;2022-10-16T12:00:05;101320.19;;;16.52;100.00
54262;BME280;40174;52.364;6.452;2022-10-16T12:02:48;101312.41;;;16.41;99.30
54262;BME280;40174;52.364;6.452;2022-10-16T12:05:23;101320.16;;;16.34;99.57
54262;BME280;40174;52.364;6.452;2022-10-16T12:08:00;101323.31;;;16.75;100.00
54262;BME280;40174;52.364;6.452;2022-10-16T12:10:29;101320.88;;;17.18;96.96
54262;BME280;40174;52.364;6.452;2022-10-16T12:13:02;101326.38;;;17.60;92.05
54262;BME280;40174;52.364;6.452;2022-10-16T12:15:30;101336.59;;;17.91;91.06
54262;BME280;40174;52.364;6.452;2022-10-16T12:17:57;101323.34;;;18.16;89.33
54262;BME280;40174;52.364;6.452;2022-10-16T12:20:27;101329.06;;;18.29;84.83
54262;BME280;40174;52.364;6.452;2022-10-16T12:22:59;101336.16;;;18.46;83.46
54262;BME280;40174;52.364;6.452;2022-10-16T12:25:28;101339.06;;;18.61;82.55
54262;BME280;40174;52.364;6.452;2022-10-16T12:28:00;101341.09;;;18.76;79.81
54262;BME280;40174;52.364;6.452;2022-10-16T12:30:30;101348.00;;;18.78;79.69
54262;BME280;40174;52.364;6.452;2022-10-16T12:32:58;101347.16;;;18.78;81.34
54262;BME280;40174;52.364;6.452;2022-10-16T12:35:28;101352.94;;;18.57;81.46
54262;BME280;40174;52.364;6.452;2022-10-16T12:38:07;101358.03;;;18.34;82.72
54262;BME280;40174;52.364;6.452;2022-10-16T12:40:36;101350.38;;;18.04;83.51
54262;BME280;40174;52.364;6.452;2022-10-16T12:43:25;101352.16;;;17.70;85.53
54262;BME280;40174;52.364;6.452;2022-10-16T12:46:04;101354.28;;;17.40;85.13
54262;BME280;40174;52.364;6.452;2022-10-16T12:48:32;101357.38;;;17.53;86.93
54262;BME280;40174;52.364;6.452;2022-10-16T12:51:10;101351.00;;;17.72;87.68
54262;BME280;40174;52.364;6.452;2022-10-16T12:53:38;101351.44;;;18.12;86.19
54262;BME280;40174;52.364;6.452;2022-10-16T12:56:12;101360.94;;;18.48;86.47
54262;BME280;40174;52.364;6.452;2022-10-16T12:58:53;101356.03;;;18.78;82.16
54262;BME280;40174;52.364;6.452;2022-10-16T13:01:32;101366.25;;;18.91;81.11
54262;BME280;40174;52.364;6.452;2022-10-16T13:04:13;101358.72;;;18.86;80.38
54262;BME280;40174;52.364;6.452;2022-10-16T13:06:51;101368.03;;;18.74;77.55